Airport Name : Bradley Intl

Other Name : Bradley Intl

ICAO : KBDL

IATA : BDL

FAA : BDL

Latitude : 41.938889

Longitude : -72.683222

Country : United States

Local Date and Time : 10/23/2018 2:56:00 AM

 

TAF (Terminal Aerodrome Forecast)

KBDL 230522Z 2306/2412 17003KT P6SM BKN080 FM231400 15003KT P6SM -SHRA OVC035 FM231800 19005KT P6SM OVC035 FM240200 28005KT P6SM BKN060 FM240600 30005KT P6SM SCT030 FM241100 31005KT P6SM BKN025

 

METAR (METeorological Aerodrome Report)

KBDL 230651Z 00000KT 10SM OVC080 03/02 A3015 RMK AO2 SLP211 T00280017

KBDL 230551Z 32003KT 10SM BKN085 02/01 A3016 RMK AO2 SLP213 T00170006 10072 20000 58007

KBDL 230451Z 00000KT 10SM BKN085 02/01 A3017 RMK AO2 SLP216 T00170006 401001028

KBDL 230351Z 00000KT 10SM SCT085 01/01 A3018 RMK AO2 SLP220 T00110006